Terminal Aerodrome Forecast
Issued by NWS

Home | Current Version | Previous Version | Text Only | Print | Product List | Glossary On
Versions: 1 2 3 4 5 6 7 8 9 10 11 12 13 14
344
FTUS46 KSTO 162320
TAFRBL
TAF
KRBL 162320Z 1700/1724 35025G35KT P6SM SKC
     FM170100 34014G25KT P6SM SKC
     FM170600 34014KT P6SM SKC=

USA.gov is the U.S. government's official web portal to all federal, state and local government web resources and services.